sensor_id;sensor_type;location;lat;lon;timestamp;pressure;altitude;pressure_sealevel;temperature;humidity
10464;BME280;5279;42.048;24.638;2023-03-31T00:02:03;97502.50;;;10.01;57.69
10464;BME280;5279;42.048;24.638;2023-03-31T00:04:32;97495.97;;;9.96;57.64
10464;BME280;5279;42.048;24.638;2023-03-31T00:06:58;97491.94;;;9.92;57.90
10464;BME280;5279;42.048;24.638;2023-03-31T00:09:25;97495.31;;;9.74;56.36
10464;BME280;5279;42.048;24.638;2023-03-31T00:11:54;97493.34;;;9.76;56.16
10464;BME280;5279;42.048;24.638;2023-03-31T00:14:21;97493.25;;;9.49;58.52
10464;BME280;5279;42.048;24.638;2023-03-31T00:16:49;97497.00;;;8.99;61.34
10464;BME280;5279;42.048;24.638;2023-03-31T00:19:16;97488.38;;;8.77;62.76
10464;BME280;5279;42.048;24.638;2023-03-31T00:21:46;97486.09;;;8.73;62.29
10464;BME280;5279;42.048;24.638;2023-03-31T00:24:17;97495.03;;;8.82;60.77
10464;BME280;5279;42.048;24.638;2023-03-31T00:26:44;97493.09;;;8.84;60.51
10464;BME280;5279;42.048;24.638;2023-03-31T00:29:12;97483.91;;;8.88;60.54
10464;BME280;5279;42.048;24.638;2023-03-31T00:31:39;97474.69;;;8.72;61.29
10464;BME280;5279;42.048;24.638;2023-03-31T00:34:07;97480.22;;;7.90;66.08
10464;BME280;5279;42.048;24.638;2023-03-31T00:36:37;97480.88;;;8.12;64.62
10464;BME280;5279;42.048;24.638;2023-03-31T00:39:13;97481.19;;;8.19;63.76
10464;BME280;5279;42.048;24.638;2023-03-31T00:41:42;97475.47;;;7.84;65.95
10464;BME280;5279;42.048;24.638;2023-03-31T00:44:12;97474.88;;;8.01;66.71
10464;BME280;5279;42.048;24.638;2023-03-31T00:46:45;97460.00;;;8.00;66.95
10464;BME280;5279;42.048;24.638;2023-03-31T00:49:22;97462.09;;;8.06;66.46
10464;BME280;5279;42.048;24.638;2023-03-31T00:51:53;97456.56;;;8.09;65.86
10464;BME280;5279;42.048;24.638;2023-03-31T00:54:22;97454.22;;;8.15;64.81
10464;BME280;5279;42.048;24.638;2023-03-31T00:56:54;97448.84;;;8.17;64.55
10464;BME280;5279;42.048;24.638;2023-03-31T00:59:26;97445.34;;;8.16;65.08
10464;BME280;5279;42.048;24.638;2023-03-31T01:01:55;97447.84;;;8.18;65.37
10464;BME280;5279;42.048;24.638;2023-03-31T01:04:31;97444.81;;;8.22;65.48
10464;BME280;5279;42.048;24.638;2023-03-31T01:07:04;97440.84;;;8.28;65.26
10464;BME280;5279;42.048;24.638;2023-03-31T01:09:34;97445.16;;;8.29;65.22
10464;BME280;5279;42.048;24.638;2023-03-31T01:12:06;97449.19;;;8.33;65.10
10464;BME280;5279;42.048;24.638;2023-03-31T01:14:34;97453.09;;;8.39;65.42
10464;BME280;5279;42.048;24.638;2023-03-31T01:17:01;97440.19;;;8.36;65.65
10464;BME280;5279;42.048;24.638;2023-03-31T01:19:44;97446.44;;;8.44;64.47
10464;BME280;5279;42.048;24.638;2023-03-31T01:25:54;97450.47;;;8.39;65.51
10464;BME280;5279;42.048;24.638;2023-03-31T01:28:32;97440.28;;;8.34;65.58
10464;BME280;5279;42.048;24.638;2023-03-31T01:34:35;97439.88;;;8.29;65.80
10464;BME280;5279;42.048;24.638;2023-03-31T01:40:33;97446.41;;;8.04;67.07
10464;BME280;5279;42.048;24.638;2023-03-31T01:43:06;97438.56;;;7.84;66.89
10464;BME280;5279;42.048;24.638;2023-03-31T01:45:43;97444.09;;;7.81;67.14
10464;BME280;5279;42.048;24.638;2023-03-31T01:48:14;97435.72;;;7.76;67.39
10464;BME280;5279;42.048;24.638;2023-03-31T01:50:45;97436.25;;;7.69;67.09
10464;BME280;5279;42.048;24.638;2023-03-31T01:53:19;97436.81;;;7.73;67.84
10464;BME280;5279;42.048;24.638;2023-03-31T01:55:54;97435.38;;;7.59;69.96
10464;BME280;5279;42.048;24.638;2023-03-31T01:58:26;97433.31;;;7.42;69.30
10464;BME280;5279;42.048;24.638;2023-03-31T02:00:59;97433.75;;;7.27;68.62
10464;BME280;5279;42.048;24.638;2023-03-31T02:03:32;97430.31;;;7.26;68.97
10464;BME280;5279;42.048;24.638;2023-03-31T02:06:05;97424.06;;;7.27;68.82
10464;BME280;5279;42.048;24.638;2023-03-31T02:08:37;97427.41;;;7.29;69.04
10464;BME280;5279;42.048;24.638;2023-03-31T02:11:07;97433.47;;;7.20;70.23
10464;BME280;5279;42.048;24.638;2023-03-31T02:13:35;97424.38;;;6.81;71.69
10464;BME280;5279;42.048;24.638;2023-03-31T02:16:09;97424.03;;;6.86;71.16
10464;BME280;5279;42.048;24.638;2023-03-31T02:18:39;97423.78;;;6.89;70.92
10464;BME280;5279;42.048;24.638;2023-03-31T02:21:07;97420.84;;;6.71;72.00
10464;BME280;5279;42.048;24.638;2023-03-31T02:23:36;97406.41;;;6.66;71.97
10464;BME280;5279;42.048;24.638;2023-03-31T02:26:08;97415.59;;;6.17;75.94
10464;BME280;5279;42.048;24.638;2023-03-31T02:28:36;97406.59;;;6.31;74.79
10464;BME280;5279;42.048;24.638;2023-03-31T02:31:11;97410.81;;;6.11;73.93
10464;BME280;5279;42.048;24.638;2023-03-31T02:33:41;97410.44;;;6.27;72.79
10464;BME280;5279;42.048;24.638;2023-03-31T02:36:13;97414.63;;;6.18;73.38
10464;BME280;5279;42.048;24.638;2023-03-31T02:38:43;97422.31;;;6.10;74.46
10464;BME280;5279;42.048;24.638;2023-03-31T02:41:13;97407.47;;;6.09;75.64
10464;BME280;5279;42.048;24.638;2023-03-31T02:43:40;97421.00;;;6.16;77.17
10464;BME280;5279;42.048;24.638;2023-03-31T02:46:07;97415.88;;;5.92;78.39
10464;BME280;5279;42.048;24.638;2023-03-31T02:48:36;97420.91;;;5.95;79.16
10464;BME280;5279;42.048;24.638;2023-03-31T02:51:28;97425.91;;;5.98;79.51
10464;BME280;5279;42.048;24.638;2023-03-31T02:54:13;97429.38;;;6.10;80.17
10464;BME280;5279;42.048;24.638;2023-03-31T02:57:04;97415.34;;;6.20;79.09
10464;BME280;5279;42.048;24.638;2023-03-31T02:59:42;97435.41;;;6.32;78.06
10464;BME280;5279;42.048;24.638;2023-03-31T03:02:17;97434.44;;;6.44;77.67
10464;BME280;5279;42.048;24.638;2023-03-31T03:05:12;97434.28;;;6.57;75.92
10464;BME280;5279;42.048;24.638;2023-03-31T03:07:48;97424.69;;;6.67;75.46
10464;BME280;5279;42.048;24.638;2023-03-31T03:10:26;97426.28;;;6.58;79.26
10464;BME280;5279;42.048;24.638;2023-03-31T03:12:59;97430.06;;;6.77;76.63
10464;BME280;5279;42.048;24.638;2023-03-31T03:15:32;97431.22;;;6.84;77.26
10464;BME280;5279;42.048;24.638;2023-03-31T03:18:00;97442.16;;;7.00;77.58
10464;BME280;5279;42.048;24.638;2023-03-31T03:20:29;97442.56;;;7.16;76.04
10464;BME280;5279;42.048;24.638;2023-03-31T03:22:58;97445.13;;;7.27;74.61
10464;BME280;5279;42.048;24.638;2023-03-31T03:25:25;97457.09;;;7.31;74.81
10464;BME280;5279;42.048;24.638;2023-03-31T03:27:52;97452.59;;;7.22;74.03
10464;BME280;5279;42.048;24.638;2023-03-31T03:30:20;97456.78;;;7.25;72.91
10464;BME280;5279;42.048;24.638;2023-03-31T03:32:48;97454.13;;;7.04;71.74
10464;BME280;5279;42.048;24.638;2023-03-31T03:35:15;97454.63;;;6.98;72.32
10464;BME280;5279;42.048;24.638;2023-03-31T03:37:42;97454.13;;;7.04;72.55
10464;BME280;5279;42.048;24.638;2023-03-31T03:40:10;97443.31;;;7.07;73.55
10464;BME280;5279;42.048;24.638;2023-03-31T03:42:37;97441.63;;;7.17;75.41
10464;BME280;5279;42.048;24.638;2023-03-31T03:45:05;97438.91;;;7.28;73.02
10464;BME280;5279;42.048;24.638;2023-03-31T03:47:34;97442.13;;;7.32;75.86
10464;BME280;5279;42.048;24.638;2023-03-31T03:50:01;97454.91;;;7.36;77.62
10464;BME280;5279;42.048;24.638;2023-03-31T03:52:28;97456.44;;;7.39;73.37
10464;BME280;5279;42.048;24.638;2023-03-31T03:54:55;97448.50;;;7.29;72.34
10464;BME280;5279;42.048;24.638;2023-03-31T03:57:22;97455.69;;;7.27;71.79
10464;BME280;5279;42.048;24.638;2023-03-31T03:59:49;97458.63;;;7.34;73.04
10464;BME280;5279;42.048;24.638;2023-03-31T04:02:15;97456.34;;;7.40;70.94
10464;BME280;5279;42.048;24.638;2023-03-31T04:04:46;97465.44;;;7.36;75.57
10464;BME280;5279;42.048;24.638;2023-03-31T04:07:13;97446.16;;;7.15;75.68
10464;BME280;5279;42.048;24.638;2023-03-31T04:09:40;97445.53;;;7.02;75.40
10464;BME280;5279;42.048;24.638;2023-03-31T04:12:07;97433.59;;;6.87;75.28
10464;BME280;5279;42.048;24.638;2023-03-31T04:14:33;97435.41;;;6.86;71.71
10464;BME280;5279;42.048;24.638;2023-03-31T04:17:00;97433.63;;;7.07;68.18
10464;BME280;5279;42.048;24.638;2023-03-31T04:19:27;97432.44;;;7.32;67.48
10464;BME280;5279;42.048;24.638;2023-03-31T04:21:55;97423.41;;;7.55;67.75
10464;BME280;5279;42.048;24.638;2023-03-31T04:24:27;97413.19;;;7.62;74.34
10464;BME280;5279;42.048;24.638;2023-03-31T04:26:57;97417.41;;;7.74;74.71
10464;BME280;5279;42.048;24.638;2023-03-31T04:29:25;97417.19;;;7.87;72.37
10464;BME280;5279;42.048;24.638;2023-03-31T04:31:53;97423.91;;;8.00;70.49
10464;BME280;5279;42.048;24.638;2023-03-31T04:34:23;97424.50;;;8.13;67.70
10464;BME280;5279;42.048;24.638;2023-03-31T04:37:01;97415.31;;;8.08;70.98
10464;BME280;5279;42.048;24.638;2023-03-31T04:39:28;97425.00;;;7.98;70.13
10464;BME280;5279;42.048;24.638;2023-03-31T04:41:56;97426.94;;;7.96;71.08
10464;BME280;5279;42.048;24.638;2023-03-31T04:44:23;97419.72;;;7.98;70.74
10464;BME280;5279;42.048;24.638;2023-03-31T04:46:50;97436.97;;;8.02;68.59
10464;BME280;5279;42.048;24.638;2023-03-31T04:49:17;97422.56;;;8.15;67.00
10464;BME280;5279;42.048;24.638;2023-03-31T04:51:44;97427.63;;;8.28;65.49
10464;BME280;5279;42.048;24.638;2023-03-31T04:54:12;97416.84;;;8.41;66.24
10464;BME280;5279;42.048;24.638;2023-03-31T04:56:39;97420.19;;;8.52;66.08
10464;BME280;5279;42.048;24.638;2023-03-31T04:59:06;97417.69;;;8.60;69.07
10464;BME280;5279;42.048;24.638;2023-03-31T05:01:33;97403.53;;;8.61;70.30
10464;BME280;5279;42.048;24.638;2023-03-31T05:04:00;97408.81;;;8.61;67.07
10464;BME280;5279;42.048;24.638;2023-03-31T05:06:27;97404.34;;;8.52;66.16
10464;BME280;5279;42.048;24.638;2023-03-31T05:08:54;97399.59;;;8.46;65.11
10464;BME280;5279;42.048;24.638;2023-03-31T05:11:23;97391.00;;;8.44;66.06
10464;BME280;5279;42.048;24.638;2023-03-31T05:13:50;97392.13;;;8.42;65.86
10464;BME280;5279;42.048;24.638;2023-03-31T05:16:17;97379.56;;;8.34;67.16
10464;BME280;5279;42.048;24.638;2023-03-31T05:18:43;97368.47;;;8.40;66.96
10464;BME280;5279;42.048;24.638;2023-03-31T05:21:12;97368.22;;;8.53;66.18
10464;BME280;5279;42.048;24.638;2023-03-31T05:23:39;97369.34;;;8.50;66.70
10464;BME280;5279;42.048;24.638;2023-03-31T05:26:06;97367.94;;;8.65;66.92
10464;BME280;5279;42.048;24.638;2023-03-31T05:28:35;97374.63;;;8.79;65.62
10464;BME280;5279;42.048;24.638;2023-03-31T05:31:03;97365.44;;;8.93;66.33
10464;BME280;5279;42.048;24.638;2023-03-31T05:33:30;97363.47;;;9.04;63.78
10464;BME280;5279;42.048;24.638;2023-03-31T05:35:58;97358.47;;;9.11;62.99
10464;BME280;5279;42.048;24.638;2023-03-31T05:38:27;97361.66;;;9.24;63.68
10464;BME280;5279;42.048;24.638;2023-03-31T05:40:56;97357.59;;;9.39;64.63
10464;BME280;5279;42.048;24.638;2023-03-31T05:43:22;97351.84;;;9.44;65.59
10464;BME280;5279;42.048;24.638;2023-03-31T05:45:51;97350.44;;;9.49;63.06
10464;BME280;5279;42.048;24.638;2023-03-31T05:48:18;97348.25;;;9.45;61.75
10464;BME280;5279;42.048;24.638;2023-03-31T05:50:45;97342.78;;;9.46;61.52
10464;BME280;5279;42.048;24.638;2023-03-31T05:53:13;97348.59;;;9.59;62.54
10464;BME280;5279;42.048;24.638;2023-03-31T05:55:40;97343.28;;;9.69;62.25
10464;BME280;5279;42.048;24.638;2023-03-31T05:58:06;97342.97;;;9.81;62.45
10464;BME280;5279;42.048;24.638;2023-03-31T06:00:33;97338.13;;;9.95;61.85
10464;BME280;5279;42.048;24.638;2023-03-31T06:03:03;97342.13;;;10.08;62.99
10464;BME280;5279;42.048;24.638;2023-03-31T06:05:32;97332.84;;;10.22;63.16
10464;BME280;5279;42.048;24.638;2023-03-31T06:07:59;97336.00;;;10.35;62.67
10464;BME280;5279;42.048;24.638;2023-03-31T06:10:26;97340.31;;;10.54;62.39
10464;BME280;5279;42.048;24.638;2023-03-31T06:12:53;97342.91;;;10.63;62.13
10464;BME280;5279;42.048;24.638;2023-03-31T06:15:21;97333.44;;;10.78;63.22
10464;BME280;5279;42.048;24.638;2023-03-31T06:17:47;97338.84;;;10.94;64.62
10464;BME280;5279;42.048;24.638;2023-03-31T06:20:16;97338.25;;;11.01;62.07
10464;BME280;5279;42.048;24.638;2023-03-31T06:22:43;97335.69;;;11.09;62.37
10464;BME280;5279;42.048;24.638;2023-03-31T06:25:09;97332.41;;;11.15;62.82
10464;BME280;5279;42.048;24.638;2023-03-31T06:27:36;97333.81;;;11.27;61.40
10464;BME280;5279;42.048;24.638;2023-03-31T06:30:03;97329.63;;;11.42;61.18
10464;BME280;5279;42.048;24.638;2023-03-31T06:32:30;97327.66;;;11.52;59.59
10464;BME280;5279;42.048;24.638;2023-03-31T06:34:57;97332.16;;;11.77;57.99
10464;BME280;5279;42.048;24.638;2023-03-31T06:37:25;97330.09;;;11.97;57.11
10464;BME280;5279;42.048;24.638;2023-03-31T06:39:52;97312.91;;;12.17;56.52
10464;BME280;5279;42.048;24.638;2023-03-31T06:42:19;97316.13;;;12.37;55.15
10464;BME280;5279;42.048;24.638;2023-03-31T06:44:46;97313.16;;;12.56;54.20
10464;BME280;5279;42.048;24.638;2023-03-31T06:47:13;97313.84;;;12.82;56.33
10464;BME280;5279;42.048;24.638;2023-03-31T06:49:40;97314.84;;;13.05;55.33
10464;BME280;5279;42.048;24.638;2023-03-31T06:52:07;97309.19;;;13.33;56.80
10464;BME280;5279;42.048;24.638;2023-03-31T06:54:35;97303.47;;;13.60;55.85
10464;BME280;5279;42.048;24.638;2023-03-31T06:57:02;97301.38;;;13.86;58.58
10464;BME280;5279;42.048;24.638;2023-03-31T06:59:29;97284.59;;;14.16;57.60
10464;BME280;5279;42.048;24.638;2023-03-31T07:01:55;97279.94;;;14.72;56.93
10464;BME280;5279;42.048;24.638;2023-03-31T07:04:22;97285.44;;;15.30;48.85
10464;BME280;5279;42.048;24.638;2023-03-31T07:06:49;97284.97;;;15.79;45.61
10464;BME280;5279;42.048;24.638;2023-03-31T07:09:16;97291.94;;;16.09;43.70
10464;BME280;5279;42.048;24.638;2023-03-31T07:11:47;97287.25;;;16.62;43.56
10464;BME280;5279;42.048;24.638;2023-03-31T07:14:14;97295.13;;;16.91;44.62
10464;BME280;5279;42.048;24.638;2023-03-31T07:16:41;97295.88;;;17.27;45.74
10464;BME280;5279;42.048;24.638;2023-03-31T07:19:07;97296.06;;;17.26;44.40
10464;BME280;5279;42.048;24.638;2023-03-31T07:21:35;97302.09;;;17.56;43.54
10464;BME280;5279;42.048;24.638;2023-03-31T07:24:02;97298.94;;;17.52;41.94
10464;BME280;5279;42.048;24.638;2023-03-31T07:26:29;97285.31;;;17.75;41.24
10464;BME280;5279;42.048;24.638;2023-03-31T07:28:57;97284.72;;;17.79;39.51
10464;BME280;5279;42.048;24.638;2023-03-31T07:31:25;97281.59;;;17.76;40.15
10464;BME280;5279;42.048;24.638;2023-03-31T07:33:51;97285.84;;;17.98;40.24
10464;BME280;5279;42.048;24.638;2023-03-31T07:36:18;97277.28;;;17.75;39.77
10464;BME280;5279;42.048;24.638;2023-03-31T07:38:46;97285.25;;;17.96;39.95
10464;BME280;5279;42.048;24.638;2023-03-31T07:41:15;97289.53;;;17.90;39.64
10464;BME280;5279;42.048;24.638;2023-03-31T07:43:43;97285.81;;;17.91;39.92
10464;BME280;5279;42.048;24.638;2023-03-31T07:46:16;97285.47;;;18.01;40.16
10464;BME280;5279;42.048;24.638;2023-03-31T07:48:44;97282.56;;;17.96;40.51
10464;BME280;5279;42.048;24.638;2023-03-31T07:51:12;97272.13;;;18.14;39.62
10464;BME280;5279;42.048;24.638;2023-03-31T07:53:39;97280.19;;;18.27;39.25
10464;BME280;5279;42.048;24.638;2023-03-31T07:56:06;97288.09;;;18.35;39.13
10464;BME280;5279;42.048;24.638;2023-03-31T07:58:33;97293.59;;;18.14;39.50
10464;BME280;5279;42.048;24.638;2023-03-31T08:01:00;97303.50;;;18.20;39.10
10464;BME280;5279;42.048;24.638;2023-03-31T08:03:29;97289.31;;;18.39;38.92
10464;BME280;5279;42.048;24.638;2023-03-31T08:05:56;97285.63;;;18.40;38.33
10464;BME280;5279;42.048;24.638;2023-03-31T08:08:23;97279.44;;;18.46;38.34
10464;BME280;5279;42.048;24.638;2023-03-31T08:10:50;97286.19;;;18.90;37.31
10464;BME280;5279;42.048;24.638;2023-03-31T08:13:17;97271.75;;;19.04;35.37
10464;BME280;5279;42.048;24.638;2023-03-31T08:15:44;97271.78;;;19.43;35.46
10464;BME280;5279;42.048;24.638;2023-03-31T08:18:11;97261.84;;;19.11;33.60
10464;BME280;5279;42.048;24.638;2023-03-31T08:20:39;97256.69;;;19.42;35.52
10464;BME280;5279;42.048;24.638;2023-03-31T08:23:06;97245.06;;;19.75;35.19
10464;BME280;5279;42.048;24.638;2023-03-31T08:25:35;97236.53;;;19.91;33.18
10464;BME280;5279;42.048;24.638;2023-03-31T08:28:02;97223.41;;;19.43;32.95
10464;BME280;5279;42.048;24.638;2023-03-31T08:30:31;97218.00;;;19.56;33.44
10464;BME280;5279;42.048;24.638;2023-03-31T08:32:58;97215.91;;;19.65;32.95
10464;BME280;5279;42.048;24.638;2023-03-31T08:35:26;97216.16;;;19.63;32.89
10464;BME280;5279;42.048;24.638;2023-03-31T08:37:54;97217.16;;;19.62;32.80
10464;BME280;5279;42.048;24.638;2023-03-31T08:40:23;97211.34;;;19.79;34.12
10464;BME280;5279;42.048;24.638;2023-03-31T08:42:52;97212.19;;;19.73;32.17
10464;BME280;5279;42.048;24.638;2023-03-31T08:45:23;97207.56;;;19.86;33.15
10464;BME280;5279;42.048;24.638;2023-03-31T08:47:53;97201.09;;;19.30;32.89
10464;BME280;5279;42.048;24.638;2023-03-31T08:50:25;97196.94;;;19.34;33.83
10464;BME280;5279;42.048;24.638;2023-03-31T08:53:00;97189.53;;;19.16;33.71
10464;BME280;5279;42.048;24.638;2023-03-31T08:55:34;97185.38;;;19.27;34.24
10464;BME280;5279;42.048;24.638;2023-03-31T08:58:06;97181.56;;;19.74;34.72
10464;BME280;5279;42.048;24.638;2023-03-31T09:00:39;97178.97;;;20.05;33.77
10464;BME280;5279;42.048;24.638;2023-03-31T09:03:15;97168.00;;;20.44;33.26
10464;BME280;5279;42.048;24.638;2023-03-31T09:05:50;97170.19;;;20.60;31.75
10464;BME280;5279;42.048;24.638;2023-03-31T09:08:35;97166.41;;;21.17;31.75
10464;BME280;5279;42.048;24.638;2023-03-31T09:11:30;97149.88;;;21.68;30.81
10464;BME280;5279;42.048;24.638;2023-03-31T09:14:24;97145.25;;;21.75;31.71
10464;BME280;5279;42.048;24.638;2023-03-31T09:16:58;97139.00;;;22.11;32.34
10464;BME280;5279;42.048;24.638;2023-03-31T09:19:34;97139.38;;;22.56;30.93
10464;BME280;5279;42.048;24.638;2023-03-31T09:22:03;97134.19;;;22.84;31.34
10464;BME280;5279;42.048;24.638;2023-03-31T09:24:35;97138.41;;;22.80;28.78
10464;BME280;5279;42.048;24.638;2023-03-31T09:27:08;97136.31;;;22.82;28.53
10464;BME280;5279;42.048;24.638;2023-03-31T09:29:41;97132.31;;;22.97;29.90
10464;BME280;5279;42.048;24.638;2023-03-31T09:32:14;97119.94;;;23.99;28.92
10464;BME280;5279;42.048;24.638;2023-03-31T09:34:42;97114.34;;;24.45;27.30
10464;BME280;5279;42.048;24.638;2023-03-31T09:37:10;97111.31;;;24.86;26.30
10464;BME280;5279;42.048;24.638;2023-03-31T09:39:39;97103.34;;;25.51;25.53
10464;BME280;5279;42.048;24.638;2023-03-31T09:42:09;97102.75;;;24.94;25.12
10464;BME280;5279;42.048;24.638;2023-03-31T09:44:39;97107.19;;;25.00;26.12
10464;BME280;5279;42.048;24.638;2023-03-31T09:47:12;97093.19;;;24.42;26.96
10464;BME280;5279;42.048;24.638;2023-03-31T09:49:41;97093.19;;;24.75;26.70
10464;BME280;5279;42.048;24.638;2023-03-31T09:52:14;97093.75;;;24.44;26.84
10464;BME280;5279;42.048;24.638;2023-03-31T09:54:49;97097.63;;;24.48;26.69
10464;BME280;5279;42.048;24.638;2023-03-31T09:57:23;97094.72;;;23.18;28.04
10464;BME280;5279;42.048;24.638;2023-03-31T09:59:52;97084.84;;;23.01;29.67
10464;BME280;5279;42.048;24.638;2023-03-31T10:02:36;97074.00;;;23.47;28.29
10464;BME280;5279;42.048;24.638;2023-03-31T10:05:06;97057.44;;;23.20;28.67
10464;BME280;5279;42.048;24.638;2023-03-31T10:07:44;97054.75;;;23.72;28.36
10464;BME280;5279;42.048;24.638;2023-03-31T10:10:22;97063.03;;;24.83;27.41
10464;BME280;5279;42.048;24.638;2023-03-31T10:12:52;97050.31;;;25.66;26.44
10464;BME280;5279;42.048;24.638;2023-03-31T10:15:21;97052.34;;;25.15;25.72
10464;BME280;5279;42.048;24.638;2023-03-31T10:17:51;97052.81;;;25.07;26.39
10464;BME280;5279;42.048;24.638;2023-03-31T10:20:22;97043.13;;;26.88;25.27
10464;BME280;5279;42.048;24.638;2023-03-31T10:22:53;97055.25;;;29.02;22.75
10464;BME280;5279;42.048;24.638;2023-03-31T10:25:23;97052.97;;;30.14;22.24
10464;BME280;5279;42.048;24.638;2023-03-31T10:27:54;97041.16;;;30.23;22.65
10464;BME280;5279;42.048;24.638;2023-03-31T10:30:23;97051.25;;;29.79;22.02
10464;BME280;5279;42.048;24.638;2023-03-31T10:32:52;97052.53;;;28.82;23.12
10464;BME280;5279;42.048;24.638;2023-03-31T10:35:23;97054.03;;;27.92;23.68
10464;BME280;5279;42.048;24.638;2023-03-31T10:37:54;97047.97;;;26.81;24.00
10464;BME280;5279;42.048;24.638;2023-03-31T10:40:25;97055.50;;;25.89;25.60
10464;BME280;5279;42.048;24.638;2023-03-31T10:43:01;97050.59;;;25.64;26.52
10464;BME280;5279;42.048;24.638;2023-03-31T10:45:30;97058.16;;;25.24;27.17
10464;BME280;5279;42.048;24.638;2023-03-31T10:47:58;97044.28;;;24.65;27.06
10464;BME280;5279;42.048;24.638;2023-03-31T10:50:27;97045.34;;;24.03;28.08
10464;BME280;5279;42.048;24.638;2023-03-31T10:53:01;97037.34;;;24.41;29.51
10464;BME280;5279;42.048;24.638;2023-03-31T10:55:34;97028.53;;;24.62;28.01
10464;BME280;5279;42.048;24.638;2023-03-31T10:58:10;97021.94;;;24.91;27.87
10464;BME280;5279;42.048;24.638;2023-03-31T11:00:53;97019.47;;;24.73;26.81
10464;BME280;5279;42.048;24.638;2023-03-31T11:03:51;97010.41;;;25.61;26.97
10464;BME280;5279;42.048;24.638;2023-03-31T11:06:26;96997.78;;;24.90;27.44
10464;BME280;5279;42.048;24.638;2023-03-31T11:09:10;97002.13;;;27.00;26.54
10464;BME280;5279;42.048;24.638;2023-03-31T11:11:55;97001.28;;;28.84;24.26
10464;BME280;5279;42.048;24.638;2023-03-31T11:14:36;96999.41;;;29.59;22.53
10464;BME280;5279;42.048;24.638;2023-03-31T11:17:15;96987.53;;;29.94;22.32
10464;BME280;5279;42.048;24.638;2023-03-31T11:19:53;96989.19;;;29.25;22.59
10464;BME280;5279;42.048;24.638;2023-03-31T11:22:27;96982.66;;;27.95;23.39
10464;BME280;5279;42.048;24.638;2023-03-31T11:25:08;96980.28;;;28.19;23.55
10464;BME280;5279;42.048;24.638;2023-03-31T11:28:01;96961.06;;;29.30;22.34
10464;BME280;5279;42.048;24.638;2023-03-31T11:30:36;96967.97;;;28.01;23.32
10464;BME280;5279;42.048;24.638;2023-03-31T11:33:24;96961.16;;;28.90;22.40
10464;BME280;5279;42.048;24.638;2023-03-31T11:36:04;96959.81;;;28.87;22.45
10464;BME280;5279;42.048;24.638;2023-03-31T11:38:41;96947.47;;;31.09;21.02
10464;BME280;5279;42.048;24.638;2023-03-31T11:41:13;96954.84;;;32.31;19.13
10464;BME280;5279;42.048;24.638;2023-03-31T11:43:44;96946.47;;;32.22;19.51
10464;BME280;5279;42.048;24.638;2023-03-31T11:46:16;96935.50;;;34.40;19.06
10464;BME280;5279;42.048;24.638;2023-03-31T11:48:46;96924.03;;;33.67;17.96
10464;BME280;5279;42.048;24.638;2023-03-31T11:51:19;96921.38;;;34.33;18.21
10464;BME280;5279;42.048;24.638;2023-03-31T11:53:48;96903.22;;;35.16;18.29
10464;BME280;5279;42.048;24.638;2023-03-31T11:56:17;96917.19;;;32.69;18.37
10464;BME280;5279;42.048;24.638;2023-03-31T11:58:50;96906.41;;;32.59;18.72
10464;BME280;5279;42.048;24.638;2023-03-31T12:01:24;96907.00;;;32.05;18.52
10464;BME280;5279;42.048;24.638;2023-03-31T12:03:57;96905.16;;;31.63;19.27
10464;BME280;5279;42.048;24.638;2023-03-31T12:06:29;96896.69;;;33.07;18.92
10464;BME280;5279;42.048;24.638;2023-03-31T12:09:12;96903.13;;;33.16;18.13
10464;BME280;5279;42.048;24.638;2023-03-31T12:11:44;96900.50;;;31.82;19.09
10464;BME280;5279;42.048;24.638;2023-03-31T12:14:26;96890.72;;;30.39;19.49
10464;BME280;5279;42.048;24.638;2023-03-31T12:16:59;96887.94;;;30.10;20.82
10464;BME280;5279;42.048;24.638;2023-03-31T12:19:32;96883.41;;;29.95;21.15
10464;BME280;5279;42.048;24.638;2023-03-31T12:22:07;96880.59;;;30.05;21.65
10464;BME280;5279;42.048;24.638;2023-03-31T12:24:37;96883.75;;;29.40;21.59
10464;BME280;5279;42.048;24.638;2023-03-31T12:27:07;96892.75;;;28.71;22.16
10464;BME280;5279;42.048;24.638;2023-03-31T12:29:42;96891.69;;;27.86;22.61
10464;BME280;5279;42.048;24.638;2023-03-31T12:32:13;96884.03;;;27.48;23.57
10464;BME280;5279;42.048;24.638;2023-03-31T12:34:46;96888.31;;;27.24;24.07
10464;BME280;5279;42.048;24.638;2023-03-31T12:37:34;96884.03;;;27.48;24.40
10464;BME280;5279;42.048;24.638;2023-03-31T12:40:19;96878.84;;;28.78;23.21
10464;BME280;5279;42.048;24.638;2023-03-31T12:43:04;96867.91;;;28.83;22.71
10464;BME280;5279;42.048;24.638;2023-03-31T12:45:38;96872.63;;;28.21;22.38
10464;BME280;5279;42.048;24.638;2023-03-31T12:48:31;96869.84;;;27.41;22.66
10464;BME280;5279;42.048;24.638;2023-03-31T12:51:18;96871.00;;;28.00;23.74
10464;BME280;5279;42.048;24.638;2023-03-31T12:53:57;96869.31;;;28.60;22.41
10464;BME280;5279;42.048;24.638;2023-03-31T12:56:27;96858.19;;;29.64;21.61
10464;BME280;5279;42.048;24.638;2023-03-31T12:58:54;96863.59;;;28.66;22.41
10464;BME280;5279;42.048;24.638;2023-03-31T13:02:16;96863.38;;;28.33;21.89
10464;BME280;5279;42.048;24.638;2023-03-31T13:04:45;96851.66;;;28.22;22.02
10464;BME280;5279;42.048;24.638;2023-03-31T13:07:38;96853.00;;;28.25;22.28
10464;BME280;5279;42.048;24.638;2023-03-31T13:10:26;96850.22;;;28.75;21.88
10464;BME280;5279;42.048;24.638;2023-03-31T13:12:59;96833.78;;;28.85;22.38
10464;BME280;5279;42.048;24.638;2023-03-31T13:15:27;96840.97;;;29.30;21.71
10464;BME280;5279;42.048;24.638;2023-03-31T13:17:59;96838.69;;;28.93;20.85
10464;BME280;5279;42.048;24.638;2023-03-31T13:20:33;96830.47;;;28.98;21.18
10464;BME280;5279;42.048;24.638;2023-03-31T13:23:04;96823.59;;;28.32;22.58
10464;BME280;5279;42.048;24.638;2023-03-31T13:25:37;96834.50;;;27.51;22.38
10464;BME280;5279;42.048;24.638;2023-03-31T13:28:14;96832.97;;;26.93;23.12
10464;BME280;5279;42.048;24.638;2023-03-31T13:30:47;96811.94;;;26.21;23.90
10464;BME280;5279;42.048;24.638;2023-03-31T13:33:19;96818.69;;;24.96;25.13
10464;BME280;5279;42.048;24.638;2023-03-31T13:35:50;96835.28;;;25.00;25.77
10464;BME280;5279;42.048;24.638;2023-03-31T13:38:28;96820.22;;;24.87;26.63